Time;durP1;ratioP1;P1;durP2;ratioP2;P2;SDS_P1;SDS_P2;PMS_P1;PMS_P2;Temp;Humidity;BMP_temperature;BMP_pressure;BME280_temperature;BME280_humidity;BME280_pressure;Samples;Min_cycle;Max_cycle;Signal;HPM_P1;HPM_P2
2022/08/12 00:44:25;;;;;;;6.10;3.43;;;18.60;99.90;;;;;;4972346;28;20046;-67
2022/08/12 00:46:52;;;;;;;9.00;3.40;;;18.60;99.90;;;;;;4985184;28;20039;-67
2022/08/12 00:49:20;;;;;;;5.80;3.27;;;18.60;99.90;;;;;;4970019;28;20137;-67
2022/08/12 00:52:10;;;;;;;9.70;3.80;;;18.50;99.90;;;;;;4957007;28;20109;-67
2022/08/12 00:54:41;;;;;;;3.90;2.93;;;18.50;99.90;;;;;;4987804;28;20462;-67
2022/08/12 00:57:10;;;;;;;6.70;3.20;;;18.40;99.90;;;;;;4970258;28;20069;-67
2022/08/12 00:59:41;;;;;;;7.83;3.70;;;18.40;99.90;;;;;;4971303;28;20097;-67
2022/08/12 01:02:07;;;;;;;3.63;3.27;;;18.30;99.90;;;;;;4969608;28;20073;-67
2022/08/12 01:12:52;;;;;;;5.57;3.80;;;18.20;99.90;;;;;;4971128;28;20422;-67
2022/08/12 01:15:18;;;;;;;4.90;3.43;;;18.20;99.90;;;;;;4967641;28;20058;-67
2022/08/12 01:17:44;;;;;;;5.17;3.37;;;18.10;99.90;;;;;;4985365;28;20043;-67
2022/08/12 01:20:17;;;;;;;11.30;3.87;;;18.10;99.90;;;;;;4987771;28;20038;-67
2022/08/12 01:22:58;;;;;;;6.13;3.90;;;18.10;99.90;;;;;;4965051;28;20142;-67
2022/08/12 01:25:30;;;;;;;5.47;3.90;;;18.00;99.90;;;;;;4975066;28;20038;-67
2022/08/12 01:27:57;;;;;;;5.70;3.33;;;18.00;99.90;;;;;;4971545;28;20134;-67
2022/08/12 01:30:25;;;;;;;8.50;4.10;;;18.00;99.90;;;;;;4986681;28;20046;-67
2022/08/12 01:32:54;;;;;;;6.23;3.70;;;18.00;99.90;;;;;;4964495;28;20057;-67
2022/08/12 01:35:22;;;;;;;7.33;3.80;;;18.00;99.90;;;;;;4987083;28;20065;-67
2022/08/12 01:37:54;;;;;;;4.57;3.73;;;17.90;99.90;;;;;;4970303;28;20050;-67
2022/08/12 01:40:25;;;;;;;8.70;4.03;;;17.90;99.90;;;;;;4969009;28;20038;-67
2022/08/12 01:42:57;;;;;;;5.00;3.30;;;17.90;99.90;;;;;;4985871;28;20058;-67
2022/08/12 01:45:25;;;;;;;17.37;4.10;;;17.90;99.90;;;;;;4973055;28;20054;-67
2022/08/12 01:48:04;;;;;;;6.10;3.77;;;17.80;99.90;;;;;;4970173;28;20132;-67
2022/08/12 01:50:35;;;;;;;7.60;4.00;;;17.80;99.90;;;;;;4969824;28;20125;-67
2022/08/12 01:53:05;;;;;;;6.17;3.80;;;17.80;99.90;;;;;;4970292;28;20066;-67
2022/08/12 01:55:33;;;;;;;5.43;3.57;;;17.80;99.90;;;;;;4984990;28;20038;-67
2022/08/12 01:58:24;;;;;;;5.50;4.20;;;17.80;99.90;;;;;;4970509;28;20140;-67
2022/08/12 02:00:57;;;;;;;6.97;3.73;;;17.70;99.90;;;;;;4952682;28;20467;-67
2022/08/12 02:12:26;;;;;;;6.83;4.20;;;17.50;99.90;;;;;;4964116;28;20054;-67
2022/08/12 02:15:02;;;;;;;7.47;3.80;;;17.50;99.90;;;;;;4967526;28;20388;-67
2022/08/12 02:17:44;;;;;;;5.40;3.80;;;17.50;99.90;;;;;;4968993;28;20488;-67
2022/08/12 02:20:20;;;;;;;5.00;3.70;;;17.50;99.90;;;;;;4969063;28;20042;-67
2022/08/12 02:22:47;;;;;;;5.50;3.83;;;17.50;99.90;;;;;;4954069;28;20420;-67
2022/08/12 02:25:21;;;;;;;10.33;3.90;;;17.40;99.90;;;;;;4965908;28;20050;-67
2022/08/12 02:27:50;;;;;;;6.88;3.80;;;17.40;99.90;;;;;;4964337;28;20484;-67
2022/08/12 02:30:20;;;;;;;8.40;4.20;;;17.40;99.90;;;;;;4969339;28;20068;-67
2022/08/12 02:32:48;;;;;;;6.40;3.70;;;17.40;99.90;;;;;;4984814;28;20104;-67
2022/08/12 02:35:18;;;;;;;5.07;3.60;;;17.40;99.90;;;;;;4969449;28;20129;-67
2022/08/12 02:37:45;;;;;;;4.53;3.90;;;17.30;99.90;;;;;;4969827;28;20525;-67
2022/08/12 02:40:13;;;;;;;7.10;4.00;;;17.20;99.90;;;;;;4949779;28;20050;-67
2022/08/12 02:42:46;;;;;;;4.13;3.73;;;17.10;99.90;;;;;;4953711;28;20069;-67
2022/08/12 02:45:15;;;;;;;;;;;17.10;99.90;;;;;;4965117;28;20428;-67
2022/08/12 02:47:45;;;;;;;6.47;4.00;;;17.10;99.90;;;;;;4965908;28;20310;-67
2022/08/12 02:50:15;;;;;;;5.83;4.57;;;17.00;99.90;;;;;;4968765;28;20054;-67
2022/08/12 02:52:41;;;;;;;4.83;4.17;;;17.00;99.90;;;;;;4970305;28;20038;-67
2022/08/12 02:55:14;;;;;;;5.87;4.20;;;16.90;99.90;;;;;;4964579;28;20038;-67
2022/08/12 02:57:43;;;;;;;7.87;4.73;;;16.90;99.90;;;;;;4969116;28;20045;-67
2022/08/12 03:00:10;;;;;;;7.60;4.50;;;17.00;99.90;;;;;;4983226;28;20050;-67
2022/08/12 03:02:38;;;;;;;6.57;4.93;;;16.90;99.90;;;;;;4965303;28;20038;-67
2022/08/12 03:05:10;;;;;;;8.10;4.67;;;16.90;99.90;;;;;;4971861;28;20312;-67
2022/08/12 03:07:44;;;;;;;9.70;4.90;;;16.90;99.90;;;;;;4967940;28;20097;-67
2022/08/12 03:10:11;;;;;;;5.80;4.47;;;16.90;99.90;;;;;;4963990;28;20065;-67
2022/08/12 03:12:39;;;;;;;5.87;4.80;;;16.90;99.90;;;;;;4938359;28;20495;-67
2022/08/12 03:15:10;;;;;;;6.47;4.50;;;16.80;99.90;;;;;;4965952;28;20110;-67
2022/08/12 03:17:48;;;;;;;9.87;5.17;;;16.90;99.90;;;;;;4965774;28;20073;-67
2022/08/12 03:20:19;;;;;;;7.93;5.03;;;16.80;99.90;;;;;;4968115;28;20058;-67
2022/08/12 03:22:46;;;;;;;7.10;5.57;;;16.80;99.90;;;;;;4983561;28;20331;-67
2022/08/12 03:25:15;;;;;;;7.17;5.53;;;16.80;99.90;;;;;;4963614;28;20034;-67
2022/08/12 03:27:54;;;;;;;8.47;5.77;;;16.80;99.90;;;;;;4951891;28;20231;-67
2022/08/12 03:30:22;;;;;;;6.73;6.03;;;16.80;99.90;;;;;;4966410;28;20058;-67
2022/08/12 03:32:50;;;;;;;9.33;5.80;;;16.80;99.90;;;;;;4965512;28;20049;-67
2022/08/12 03:35:23;;;;;;;9.07;5.27;;;16.80;99.90;;;;;;4968511;28;20127;-67
2022/08/12 03:37:55;;;;;;;7.55;6.05;;;16.80;99.90;;;;;;4966038;28;20051;-66
2022/08/12 04:02:33;;;;;;;9.77;6.60;;;16.60;99.90;;;;;;4983132;28;20087;-66
2022/08/12 04:05:00;;;;;;;7.57;6.20;;;16.60;99.90;;;;;;4968929;28;20090;-66
2022/08/12 04:07:29;;;;;;;7.73;6.40;;;16.60;99.90;;;;;;4983082;28;20035;-65
2022/08/12 04:09:56;;;;;;;8.13;6.57;;;16.60;99.90;;;;;;4965826;28;20054;-66
2022/08/12 04:15:12;;;;;;;10.83;7.10;;;16.60;99.90;;;;;;4984349;28;20046;-66
2022/08/12 04:17:40;;;;;;;10.50;7.60;;;16.60;99.90;;;;;;4965840;28;20038;-66
2022/08/12 04:20:08;;;;;;;9.13;6.70;;;16.60;99.90;;;;;;4952635;28;20043;-66
2022/08/12 04:22:37;;;;;;;8.63;6.53;;;16.60;99.90;;;;;;4967622;28;20046;-66
2022/08/12 04:25:03;;;;;;;13.23;7.40;;;16.60;99.90;;;;;;4980780;28;20049;-66
2022/08/12 04:27:30;;;;;;;8.80;7.87;;;16.50;99.90;;;;;;4966146;28;20303;-66
2022/08/12 04:29:57;;;;;;;11.20;6.83;;;16.60;99.90;;;;;;4981676;28;20512;-66
2022/08/12 04:32:23;;;;;;;11.93;7.20;;;16.50;99.90;;;;;;4952466;28;20149;-66
2022/08/12 04:34:49;;;;;;;9.13;7.30;;;16.50;99.90;;;;;;4964261;28;20046;-66
2022/08/12 04:37:15;;;;;;;9.37;7.17;;;16.50;99.90;;;;;;4969203;28;20050;-66
2022/08/12 04:39:43;;;;;;;9.73;6.50;;;16.50;99.90;;;;;;4981257;28;20428;-66
2022/08/12 04:42:09;;;;;;;9.07;6.37;;;16.50;99.90;;;;;;4984730;28;20050;-66
2022/08/12 04:44:34;;;;;;;7.77;6.70;;;16.50;99.90;;;;;;4952301;28;20132;-66
2022/08/12 04:47:00;;;;;;;8.30;6.80;;;16.50;99.90;;;;;;4967246;28;20034;-66
2022/08/12 04:49:27;;;;;;;10.10;6.73;;;16.50;99.90;;;;;;4967230;28;20049;-66
2022/08/12 04:51:54;;;;;;;10.67;6.23;;;16.50;99.90;;;;;;4970844;28;20081;-66
2022/08/12 04:54:22;;;;;;;8.57;6.80;;;16.60;99.90;;;;;;4986134;28;20042;-66
2022/08/12 04:56:52;;;;;;;7.93;6.80;;;16.50;99.90;;;;;;4968230;28;20064;-66
2022/08/12 04:59:18;;;;;;;7.83;6.10;;;16.60;99.90;;;;;;4964583;28;20407;-66
2022/08/12 05:01:49;;;;;;;7.73;6.40;;;16.60;99.90;;;;;;4970545;28;20050;-66
2022/08/12 05:04:16;;;;;;;15.17;7.33;;;16.60;99.90;;;;;;4966124;28;20647;-66
2022/08/12 05:06:41;;;;;;;9.57;6.57;;;16.60;99.90;;;;;;4971621;28;20423;-66
2022/08/12 05:09:08;;;;;;;10.33;6.17;;;16.60;99.90;;;;;;4954964;28;20049;-66
2022/08/12 05:11:35;;;;;;;8.47;6.23;;;16.70;99.90;;;;;;4966433;28;20503;-66
2022/08/12 05:14:03;;;;;;;8.37;6.70;;;16.70;99.90;;;;;;4971216;28;20159;-66
2022/08/12 05:16:29;;;;;;;6.93;6.20;;;16.70;99.90;;;;;;4966559;28;20138;-66
2022/08/12 05:18:55;;;;;;;9.63;6.10;;;16.70;99.90;;;;;;4968628;28;20492;-66
2022/08/12 05:21:21;;;;;;;7.23;6.37;;;16.80;99.90;;;;;;4971740;28;20054;-66
2022/08/12 05:23:47;;;;;;;9.47;6.70;;;16.80;99.90;;;;;;4954811;28;20069;-66
2022/08/12 05:26:12;;;;;;;9.30;6.27;;;16.90;99.90;;;;;;4948915;28;20053;-66
2022/08/12 05:28:39;;;;;;;7.80;5.47;;;16.90;99.90;;;;;;4968560;28;20385;-66
2022/08/12 05:31:06;;;;;;;10.87;7.07;;;16.90;99.90;;;;;;4973894;28;20554;-66
2022/08/12 05:33:39;;;;;;;6.07;5.40;;;17.00;99.90;;;;;;4968827;28;20042;-66
2022/08/12 05:36:07;;;;;;;6.65;5.60;;;17.00;99.90;;;;;;4975145;28;20042;-66
2022/08/12 05:41:19;;;;;;;9.63;5.67;;;17.10;99.90;;;;;;4986606;28;20678;-66
2022/08/12 05:43:46;;;;;;;9.13;5.70;;;17.20;99.90;;;;;;4985771;28;20116;-66
2022/08/12 05:46:13;;;;;;;7.43;5.60;;;17.20;99.90;;;;;;4968600;28;20438;-66
2022/08/12 05:48:40;;;;;;;9.67;5.70;;;17.30;99.90;;;;;;4986270;28;20117;-66
2022/08/12 05:51:06;;;;;;;10.50;5.80;;;17.30;99.90;;;;;;4972707;28;20040;-66
2022/08/12 05:53:32;;;;;;;13.30;6.00;;;17.40;99.90;;;;;;4970593;28;20046;-66
2022/08/12 05:55:58;;;;;;;7.70;6.10;;;17.50;99.90;;;;;;4973278;28;20062;-66
2022/08/12 05:58:23;;;;;;;7.83;5.70;;;17.60;99.90;;;;;;4955041;28;20053;-66
2022/08/12 06:00:49;;;;;;;11.70;6.30;;;17.70;99.90;;;;;;4985625;28;20695;-66
2022/08/12 06:03:16;;;;;;;15.47;6.33;;;17.80;99.90;;;;;;4957422;28;20057;-66
2022/08/12 06:05:44;;;;;;;8.67;6.17;;;17.90;99.90;;;;;;4957412;28;20113;-66
2022/08/12 06:08:10;;;;;;;8.83;5.43;;;17.90;99.90;;;;;;4972183;28;20050;-66
2022/08/12 06:10:36;;;;;;;9.77;5.60;;;18.20;99.90;;;;;;4969339;28;20031;-66
2022/08/12 06:13:04;;;;;;;7.70;5.90;;;18.60;99.90;;;;;;4985784;28;20408;-66
2022/08/12 06:15:31;;;;;;;8.77;5.87;;;18.70;99.90;;;;;;4966524;28;20050;-66
2022/08/12 06:18:04;;;;;;;9.77;5.43;;;18.80;99.90;;;;;;4971983;28;20102;-66
2022/08/12 08:28:34;;;;;;;5.00;2.60;;;23.10;99.90;;;;;;5648410;23;20130;-69
